Aviation Digital Data Service (ADDS)

Output produced by METARs form (1130 UTC 25 June 2019)
found at http://www.aviationweather.gov/metar/data/
 
Forecast for: ESPA (KALLAX/LULEA (AF, SE)
Text: TAF ESPA 250830Z 2509/2518 30010KT CAVOK RMK MIL
Forecast period: 0900 to 1800 UTC 25 June 2019
Forecast type: FROM: standard forecast or significant change
Winds: from the WNW (300 degrees) at 12 MPH (10 knots; 5.1 m/s)
Visibility: 6 or more miles 10+ km)
Ceiling: unknown
Clouds: missing
Weather: NSW  (no significant weather)